createdAt,value
2023-03-17T00:01:54.989Z,102337.47
2023-03-17T00:04:24.247Z,102334.97
2023-03-17T00:06:52.889Z,102332.19
2023-03-17T00:09:22.385Z,102330.31
2023-03-17T00:11:50.164Z,102336.59
2023-03-17T00:14:18.961Z,102339.09
2023-03-17T00:16:49.699Z,102333.72
2023-03-17T00:19:18.183Z,102334.69
2023-03-17T00:21:47.141Z,102343.66
2023-03-17T00:24:15.423Z,102335.88
2023-03-17T00:26:43.385Z,102336.13
2023-03-17T00:32:52.827Z,102342.53
2023-03-17T00:35:23.038Z,102331.69
2023-03-17T00:37:52.487Z,102339.97
2023-03-17T00:40:24.185Z,102336.00
2023-03-17T00:42:52.339Z,102344.88
2023-03-17T00:45:20.178Z,102337.75
2023-03-17T00:47:47.768Z,102350.13
2023-03-17T00:50:18.374Z,102346.34
2023-03-17T00:52:46.397Z,102348.34
2023-03-17T00:55:14.528Z,102342.19
2023-03-17T00:57:42.387Z,102349.56
2023-03-17T01:00:18.794Z,102347.28
2023-03-17T01:02:46.754Z,102355.50
2023-03-17T01:05:14.319Z,102353.19
2023-03-17T01:07:42.864Z,102353.63
2023-03-17T01:10:14.297Z,102360.88
2023-03-17T01:12:41.570Z,102362.50
2023-03-17T01:15:09.210Z,102362.41
2023-03-17T01:17:37.779Z,102363.38
2023-03-17T01:20:06.734Z,102357.66
2023-03-17T01:22:34.808Z,102360.97
2023-03-17T01:25:02.218Z,102363.78
2023-03-17T01:27:33.977Z,102360.34
2023-03-17T01:30:01.372Z,102355.09
2023-03-17T01:32:28.654Z,102344.88
2023-03-17T01:34:56.052Z,102341.09
2023-03-17T01:37:24.158Z,102345.00
2023-03-17T01:39:52.669Z,102328.72
2023-03-17T01:42:21.004Z,102344.88
2023-03-17T01:45:02.398Z,102330.47
2023-03-17T01:47:32.791Z,102346.88
2023-03-17T01:50:03.034Z,102336.72
2023-03-17T01:52:30.364Z,102337.19
2023-03-17T01:54:57.802Z,102333.72
2023-03-17T01:57:39.738Z,102336.38
2023-03-17T02:00:09.521Z,102342.00
2023-03-17T02:02:44.406Z,102344.53
2023-03-17T02:05:13.326Z,102337.47
2023-03-17T02:07:40.978Z,102338.47
2023-03-17T02:10:09.085Z,102341.53
2023-03-17T02:12:40.720Z,102340.03
2023-03-17T02:15:09.702Z,102345.03
2023-03-17T02:17:37.209Z,102345.03
2023-03-17T02:20:17.281Z,102345.66
2023-03-17T02:22:49.692Z,102344.31
2023-03-17T02:25:17.604Z,102332.69
2023-03-17T02:27:46.499Z,102340.56
2023-03-17T02:30:15.778Z,102340.69
2023-03-17T02:32:43.575Z,102347.72
2023-03-17T02:35:11.143Z,102343.25
2023-03-17T02:37:38.584Z,102348.25
2023-03-17T02:40:06.890Z,102350.72
2023-03-17T02:42:34.351Z,102357.41
2023-03-17T02:45:02.327Z,102356.94
2023-03-17T02:47:29.656Z,102357.25
2023-03-17T02:49:56.938Z,102357.47
2023-03-17T02:52:24.501Z,102370.31
2023-03-17T02:54:51.713Z,102368.44
2023-03-17T02:57:18.932Z,102362.97
2023-03-17T02:59:46.452Z,102367.78
2023-03-17T03:02:14.405Z,102378.28
2023-03-17T03:04:42.002Z,102366.97
2023-03-17T03:07:10.135Z,102371.97
2023-03-17T03:09:37.555Z,102365.94
2023-03-17T03:12:05.103Z,102360.78
2023-03-17T03:14:32.605Z,102367.13
2023-03-17T03:16:59.974Z,102365.16
2023-03-17T03:19:27.150Z,102364.88
2023-03-17T03:21:54.401Z,102366.81
2023-03-17T03:24:21.646Z,102366.84
2023-03-17T03:26:49.047Z,102374.25
2023-03-17T03:29:16.950Z,102360.50
2023-03-17T03:31:44.402Z,102351.13
2023-03-17T03:34:11.692Z,102364.97
2023-03-17T03:36:39.067Z,102358.16
2023-03-17T03:39:06.308Z,102358.72
2023-03-17T03:41:33.707Z,102351.94
2023-03-17T03:44:01.124Z,102350.56
2023-03-17T03:46:28.611Z,102359.81
2023-03-17T03:48:55.848Z,102351.41
2023-03-17T03:51:23.280Z,102353.91
2023-03-17T03:53:50.539Z,102348.13
2023-03-17T03:56:17.761Z,102357.53
2023-03-17T03:58:45.202Z,102354.69
2023-03-17T04:01:12.694Z,102356.72
2023-03-17T04:03:39.946Z,102359.31
2023-03-17T04:06:07.207Z,102367.84
2023-03-17T04:08:34.756Z,102363.59
2023-03-17T04:11:02.436Z,102369.13
2023-03-17T04:13:29.641Z,102368.25
2023-03-17T04:15:57.252Z,102370.81
2023-03-17T04:18:24.510Z,102384.50
2023-03-17T04:20:51.776Z,102373.88
2023-03-17T04:23:19.326Z,102382.47
2023-03-17T04:25:47.031Z,102377.75
2023-03-17T04:28:14.250Z,102374.13
2023-03-17T04:30:41.747Z,102375.19
2023-03-17T04:33:09.054Z,102374.06
2023-03-17T04:35:36.438Z,102377.16
2023-03-17T04:38:03.965Z,102375.59
2023-03-17T04:40:31.982Z,102379.31
2023-03-17T04:43:00.146Z,102377.13
2023-03-17T04:45:28.758Z,102375.69
2023-03-17T04:47:56.178Z,102379.53
2023-03-17T04:50:23.645Z,102379.47
2023-03-17T04:52:51.004Z,102374.97
2023-03-17T04:55:18.280Z,102383.16
2023-03-17T04:57:46.022Z,102385.03
2023-03-17T05:00:15.614Z,102377.59
2023-03-17T05:02:42.961Z,102380.88
2023-03-17T05:05:10.339Z,102382.97
2023-03-17T05:07:37.743Z,102378.28
2023-03-17T05:10:05.656Z,102379.69
2023-03-17T05:12:32.811Z,102382.25
2023-03-17T05:15:00.094Z,102380.19
2023-03-17T05:17:27.505Z,102385.09
2023-03-17T05:19:54.715Z,102398.19
2023-03-17T05:22:22.152Z,102399.28
2023-03-17T05:24:49.434Z,102412.81
2023-03-17T05:27:16.782Z,102416.53
2023-03-17T05:29:44.073Z,102410.59
2023-03-17T05:32:11.768Z,102416.69
2023-03-17T05:34:39.061Z,102419.09
2023-03-17T05:37:07.711Z,102420.59
2023-03-17T05:39:34.935Z,102405.81
2023-03-17T05:42:02.361Z,102418.84
2023-03-17T05:44:29.883Z,102428.63
2023-03-17T05:46:59.696Z,102418.19
2023-03-17T05:49:27.382Z,102412.94
2023-03-17T05:51:55.384Z,102421.28
2023-03-17T05:54:23.189Z,102426.22
2023-03-17T05:56:50.873Z,102430.56
2023-03-17T05:59:18.606Z,102427.75
2023-03-17T06:01:46.215Z,102431.25
2023-03-17T06:04:13.582Z,102425.88
2023-03-17T06:06:41.424Z,102426.34
2023-03-17T06:09:08.687Z,102425.88
2023-03-17T06:11:37.008Z,102432.19
2023-03-17T06:14:04.736Z,102425.72
2023-03-17T06:16:33.322Z,102416.97
2023-03-17T06:19:01.032Z,102411.66
2023-03-17T06:21:28.386Z,102408.56
2023-03-17T06:23:55.780Z,102406.31
2023-03-17T06:26:23.149Z,102414.63
2023-03-17T06:28:50.556Z,102410.75
2023-03-17T06:31:18.053Z,102425.22
2023-03-17T06:33:45.532Z,102415.09
2023-03-17T06:36:12.991Z,102419.88
2023-03-17T06:38:40.664Z,102426.88
2023-03-17T06:41:09.187Z,102429.22
2023-03-17T06:43:36.669Z,102420.84
2023-03-17T06:46:04.347Z,102428.47
2023-03-17T06:48:31.726Z,102431.66
2023-03-17T06:50:59.108Z,102428.63
2023-03-17T06:53:26.498Z,102423.75
2023-03-17T06:55:53.757Z,102421.81
2023-03-17T06:58:21.883Z,102425.50
2023-03-17T07:00:49.165Z,102415.81
2023-03-17T07:03:16.965Z,102418.00
2023-03-17T07:05:44.662Z,102423.38
2023-03-17T07:08:11.968Z,102419.38
2023-03-17T07:10:41.172Z,102425.38
2023-03-17T07:13:08.769Z,102420.69
2023-03-17T07:15:37.459Z,102427.22
2023-03-17T07:18:06.502Z,102418.59
2023-03-17T07:20:33.809Z,102425.34
2023-03-17T07:23:01.341Z,102425.47
2023-03-17T07:25:28.652Z,102419.94
2023-03-17T07:27:56.744Z,102419.09
2023-03-17T07:30:24.006Z,102417.63
2023-03-17T07:32:51.499Z,102413.25
2023-03-17T07:35:19.414Z,102423.09
2023-03-17T07:37:47.432Z,102410.31
2023-03-17T07:40:14.759Z,102416.38
2023-03-17T07:42:42.459Z,102420.38
2023-03-17T07:45:10.103Z,102409.81
2023-03-17T07:47:37.565Z,102420.69
2023-03-17T07:50:05.333Z,102420.94
2023-03-17T07:52:32.674Z,102408.72
2023-03-17T07:54:59.862Z,102410.78
2023-03-17T07:57:27.453Z,102413.56
2023-03-17T07:59:54.797Z,102407.50
2023-03-17T08:02:22.334Z,102412.44
2023-03-17T08:04:51.158Z,102423.63
2023-03-17T08:07:18.617Z,102405.03
2023-03-17T08:09:46.584Z,102407.88
2023-03-17T08:12:14.749Z,102410.41
2023-03-17T08:14:41.992Z,102404.72
2023-03-17T08:17:09.493Z,102403.84
2023-03-17T08:19:36.879Z,102394.97
2023-03-17T08:22:04.386Z,102406.75
2023-03-17T08:24:32.630Z,102398.81
2023-03-17T08:27:00.988Z,102386.38
2023-03-17T08:29:29.258Z,102403.75
2023-03-17T08:31:57.340Z,102412.69
2023-03-17T08:34:24.666Z,102417.91
2023-03-17T08:36:52.588Z,102411.50
2023-03-17T08:39:20.576Z,102419.16
2023-03-17T08:41:47.975Z,102410.97
2023-03-17T08:44:15.228Z,102414.16
2023-03-17T08:46:42.753Z,102419.97
2023-03-17T08:49:10.816Z,102417.09
2023-03-17T08:51:38.762Z,102419.13
2023-03-17T08:54:06.995Z,102428.09
2023-03-17T08:56:35.038Z,102426.19
2023-03-17T08:59:02.223Z,102426.19
2023-03-17T09:01:29.623Z,102427.16
2023-03-17T09:03:57.026Z,102421.34
2023-03-17T09:06:25.583Z,102428.84
2023-03-17T09:08:55.615Z,102428.69
2023-03-17T09:11:24.862Z,102437.41
2023-03-17T09:13:52.670Z,102431.50
2023-03-17T09:16:20.088Z,102432.91
2023-03-17T09:18:47.484Z,102433.75
2023-03-17T09:21:15.395Z,102421.34
2023-03-17T09:23:43.398Z,102419.53
2023-03-17T09:26:12.443Z,102418.53
2023-03-17T09:28:39.842Z,102418.75
2023-03-17T09:31:11.690Z,102415.63
2023-03-17T09:33:40.741Z,102417.22
2023-03-17T09:36:08.995Z,102411.09
2023-03-17T09:38:37.358Z,102424.97
2023-03-17T09:41:18.477Z,102406.50
2023-03-17T09:43:45.974Z,102403.00
2023-03-17T09:46:36.593Z,102406.94
2023-03-17T09:49:08.866Z,102400.03
2023-03-17T09:51:38.817Z,102389.06
2023-03-17T09:54:16.557Z,102395.63
2023-03-17T09:56:48.349Z,102383.66
2023-03-17T09:59:21.813Z,102383.78
2023-03-17T10:01:49.706Z,102383.66
2023-03-17T10:04:18.864Z,102388.94
2023-03-17T10:06:46.958Z,102381.91
2023-03-17T10:09:27.217Z,102372.72
2023-03-17T10:12:02.254Z,102377.69
2023-03-17T10:14:35.608Z,102361.78
2023-03-17T10:17:21.643Z,102361.38
2023-03-17T10:19:59.901Z,102353.84
2023-03-17T10:22:59.616Z,102348.28
2023-03-17T10:25:34.455Z,102337.38
2023-03-17T10:28:08.700Z,102330.91
2023-03-17T10:30:36.516Z,102326.88
2023-03-17T10:33:07.287Z,102324.78
2023-03-17T10:35:36.530Z,102325.47
2023-03-17T10:38:16.379Z,102306.72
2023-03-17T10:40:57.482Z,102306.16
2023-03-17T10:43:29.234Z,102315.03
2023-03-17T10:46:01.716Z,102317.41
2023-03-17T10:48:30.066Z,102310.16
2023-03-17T10:50:58.804Z,102299.63
2023-03-17T10:53:30.367Z,102292.28
2023-03-17T10:56:07.409Z,102281.50
2023-03-17T10:58:35.069Z,102284.56
2023-03-17T11:01:08.395Z,102279.66
2023-03-17T11:03:38.996Z,102273.59
2023-03-17T11:06:08.812Z,102277.66
2023-03-17T11:08:39.613Z,102273.28
2023-03-17T11:11:08.571Z,102277.34
2023-03-17T11:13:36.644Z,102273.00
2023-03-17T11:16:07.441Z,102274.28
2023-03-17T11:18:36.724Z,102262.06
2023-03-17T11:21:04.164Z,102246.66
2023-03-17T11:23:51.670Z,102251.72
2023-03-17T11:26:37.755Z,102252.44
2023-03-17T11:29:07.957Z,102245.56
2023-03-17T11:31:39.198Z,102244.69
2023-03-17T11:34:12.558Z,102244.03
2023-03-17T11:37:00.253Z,102239.44
2023-03-17T11:39:33.998Z,102239.31
2023-03-17T11:42:20.098Z,102244.69
2023-03-17T11:45:03.865Z,102241.03
2023-03-17T11:47:32.142Z,102238.56
2023-03-17T11:50:08.807Z,102245.03
2023-03-17T11:52:48.453Z,102239.97
2023-03-17T11:55:20.892Z,102240.44
2023-03-17T11:57:48.344Z,102235.50
2023-03-17T12:00:30.117Z,102184.84
2023-03-17T12:03:00.298Z,102233.09
2023-03-17T12:05:28.668Z,102240.19
2023-03-17T12:08:05.038Z,102247.41
2023-03-17T12:10:40.617Z,102242.00
2023-03-17T12:13:20.931Z,102245.44
2023-03-17T12:15:54.104Z,102248.00
2023-03-17T12:18:25.740Z,102242.59
2023-03-17T12:20:58.606Z,102238.69
2023-03-17T12:23:33.221Z,102238.56
2023-03-17T12:26:06.879Z,102244.69
2023-03-17T12:28:49.260Z,102247.25
2023-03-17T12:31:29.027Z,102243.53
2023-03-17T12:34:18.593Z,102226.72
2023-03-17T12:36:46.096Z,102222.72
2023-03-17T12:39:18.393Z,102204.03
2023-03-17T12:42:01.695Z,102209.34
2023-03-17T12:44:35.465Z,102194.09
2023-03-17T12:47:08.852Z,102187.63
2023-03-17T12:49:42.353Z,102199.31
2023-03-17T12:52:15.468Z,102186.81
2023-03-17T12:54:45.970Z,102190.72
2023-03-17T12:57:27.119Z,102190.03
2023-03-17T13:00:15.590Z,102186.59
2023-03-17T13:02:46.351Z,102194.88
2023-03-17T13:05:15.088Z,102198.91
2023-03-17T13:07:45.336Z,102197.06
2023-03-17T13:10:18.938Z,102190.22
2023-03-17T13:12:49.371Z,102177.41
2023-03-17T13:15:22.927Z,102168.75
2023-03-17T13:17:50.525Z,102178.81
2023-03-17T13:20:21.009Z,102170.22
2023-03-17T13:23:00.620Z,102163.81
2023-03-17T13:25:30.943Z,102170.88
2023-03-17T13:28:13.633Z,102172.56
2023-03-17T13:30:42.656Z,102171.19
2023-03-17T13:33:10.060Z,102169.91
2023-03-17T13:35:46.927Z,102170.16
2023-03-17T13:38:29.694Z,102164.34
2023-03-17T13:40:56.928Z,102158.75
2023-03-17T13:43:43.613Z,102154.56
2023-03-17T13:46:20.266Z,102154.28
2023-03-17T13:48:48.035Z,102153.75
2023-03-17T13:51:21.067Z,102136.78
2023-03-17T13:53:51.636Z,102140.59
2023-03-17T13:56:46.956Z,102135.56
2023-03-17T13:59:15.140Z,102140.16
2023-03-17T14:01:54.233Z,102143.28
2023-03-17T14:04:25.704Z,102142.91
2023-03-17T14:06:55.426Z,102138.66
2023-03-17T14:09:22.722Z,102130.88
2023-03-17T14:11:50.905Z,102134.50
2023-03-17T14:14:33.379Z,102122.00
2023-03-17T14:17:09.851Z,102116.28
2023-03-17T14:19:41.631Z,102106.13
2023-03-17T14:22:19.947Z,102103.16
2023-03-17T14:24:51.155Z,102089.53
2023-03-17T14:27:18.831Z,102097.31
2023-03-17T14:29:47.386Z,102084.94
2023-03-17T14:32:16.092Z,102083.19
2023-03-17T14:34:53.144Z,102072.69
2023-03-17T14:37:20.707Z,102076.94
2023-03-17T14:39:49.329Z,102071.41
2023-03-17T14:42:17.986Z,102080.25
2023-03-17T14:44:45.543Z,102074.94
2023-03-17T14:47:14.915Z,102075.91
2023-03-17T14:49:42.363Z,102087.72
2023-03-17T14:52:25.133Z,102070.25
2023-03-17T14:54:53.685Z,102070.63
2023-03-17T14:57:22.778Z,102074.44
2023-03-17T14:59:57.813Z,102082.59
2023-03-17T15:02:34.438Z,102076.09
2023-03-17T15:05:22.045Z,102067.81
2023-03-17T15:07:49.408Z,102070.50
2023-03-17T15:10:17.954Z,102058.56
2023-03-17T15:12:49.138Z,102053.75
2023-03-17T15:15:27.159Z,102057.47
2023-03-17T15:17:55.970Z,102050.56
2023-03-17T15:20:23.386Z,102058.47
2023-03-17T15:23:14.282Z,102047.78
2023-03-17T15:25:46.401Z,102039.69
2023-03-17T15:28:15.489Z,102042.84
2023-03-17T15:30:47.442Z,102041.47
2023-03-17T15:33:37.945Z,102032.97
2023-03-17T15:36:05.860Z,102030.66
2023-03-17T15:38:34.491Z,102025.25
2023-03-17T15:41:02.174Z,102019.44
2023-03-17T15:43:29.382Z,102019.00
2023-03-17T15:46:01.452Z,102021.63
2023-03-17T15:48:31.517Z,102010.00
2023-03-17T15:51:00.168Z,102007.88
2023-03-17T15:53:27.687Z,101991.59
2023-03-17T15:55:55.142Z,102001.72
2023-03-17T15:58:22.361Z,102002.38
2023-03-17T16:00:51.855Z,101999.94
2023-03-17T16:03:29.665Z,102003.44
2023-03-17T16:05:57.873Z,101999.69
2023-03-17T16:08:25.147Z,101996.88
2023-03-17T16:10:52.430Z,101994.97
2023-03-17T16:13:20.445Z,101987.44
2023-03-17T16:15:52.721Z,101994.56
2023-03-17T16:18:23.067Z,101985.78
2023-03-17T16:20:50.991Z,101984.38
2023-03-17T16:23:23.065Z,101974.31
2023-03-17T16:25:51.682Z,101973.88
2023-03-17T16:28:20.804Z,101973.91
2023-03-17T16:30:48.779Z,101965.66
2023-03-17T16:33:20.579Z,101961.50
2023-03-17T16:35:52.488Z,101966.28
2023-03-17T16:38:20.932Z,101964.00
2023-03-17T16:40:50.442Z,101960.72
2023-03-17T16:43:25.569Z,101963.28
2023-03-17T16:45:58.158Z,101971.03
2023-03-17T16:48:26.105Z,101963.59
2023-03-17T16:50:53.455Z,101961.09
2023-03-17T16:53:20.846Z,101968.91
2023-03-17T16:55:48.179Z,101967.06
2023-03-17T16:58:23.422Z,101965.88
2023-03-17T17:00:52.419Z,101974.91
2023-03-17T17:03:19.828Z,101977.16
2023-03-17T17:05:47.579Z,101972.78
2023-03-17T17:08:14.842Z,101974.69
2023-03-17T17:10:42.159Z,101961.06
2023-03-17T17:13:09.834Z,101967.50
2023-03-17T17:15:37.802Z,101967.25
2023-03-17T17:18:07.124Z,101966.78
2023-03-17T17:20:36.049Z,101964.84
2023-03-17T17:23:03.739Z,101961.47
2023-03-17T17:25:31.463Z,101964.22
2023-03-17T17:27:59.218Z,101964.22
2023-03-17T17:30:28.366Z,101959.63
2023-03-17T17:32:57.682Z,101962.47
2023-03-17T17:35:26.015Z,101963.44
2023-03-17T17:37:53.623Z,101962.31
2023-03-17T17:40:21.914Z,101971.09
2023-03-17T17:42:49.146Z,101971.56
2023-03-17T17:45:16.554Z,101979.25
2023-03-17T17:47:43.802Z,101991.34
2023-03-17T17:50:16.428Z,101992.09
2023-03-17T17:52:43.697Z,102004.72
2023-03-17T17:55:11.102Z,102005.28
2023-03-17T17:57:38.565Z,102012.75
2023-03-17T18:00:06.686Z,102018.91
2023-03-17T18:02:36.349Z,102017.19
2023-03-17T18:05:05.965Z,102021.84
2023-03-17T18:07:33.267Z,102022.09
2023-03-17T18:10:00.618Z,102024.97
2023-03-17T18:12:28.220Z,102027.81
2023-03-17T18:14:55.764Z,102028.94
2023-03-17T18:17:23.070Z,102026.78
2023-03-17T18:19:53.000Z,102029.53
2023-03-17T18:22:21.561Z,102018.31
2023-03-17T18:24:49.419Z,102024.84
2023-03-17T18:27:17.049Z,102020.88
2023-03-17T18:29:44.258Z,102009.09
2023-03-17T18:32:12.244Z,102015.31
2023-03-17T18:34:46.529Z,102011.84
2023-03-17T18:37:15.324Z,102001.56
2023-03-17T18:39:42.899Z,102014.13
2023-03-17T18:42:10.847Z,102010.25
2023-03-17T18:44:38.154Z,102007.19
2023-03-17T18:47:05.596Z,102002.88
2023-03-17T18:49:32.977Z,102002.47
2023-03-17T18:52:00.911Z,102004.56
2023-03-17T18:54:28.384Z,102003.53
2023-03-17T18:56:56.497Z,101994.91
2023-03-17T18:59:23.763Z,101992.66
2023-03-17T19:01:51.303Z,101993.91
2023-03-17T19:04:18.829Z,101988.19
2023-03-17T19:06:46.638Z,101984.28
2023-03-17T19:09:14.266Z,101985.59
2023-03-17T19:11:42.047Z,101991.19
2023-03-17T19:14:09.944Z,101972.53
2023-03-17T19:16:37.495Z,101973.25
2023-03-17T19:19:04.968Z,101965.19
2023-03-17T19:21:32.659Z,101951.00
2023-03-17T19:24:00.913Z,101954.53
2023-03-17T19:26:28.651Z,101951.84
2023-03-17T19:28:56.843Z,101948.69
2023-03-17T19:31:24.928Z,101945.16
2023-03-17T19:33:52.583Z,101947.13
2023-03-17T19:36:19.975Z,101942.19
2023-03-17T19:38:47.205Z,101945.06
2023-03-17T19:41:15.685Z,101943.63
2023-03-17T19:43:42.909Z,101947.03
2023-03-17T19:46:11.447Z,101942.09
2023-03-17T19:48:39.351Z,101940.59
2023-03-17T19:51:06.932Z,101942.34
2023-03-17T19:53:34.398Z,101941.88
2023-03-17T19:56:01.633Z,101931.09
2023-03-17T19:58:28.849Z,101926.28
2023-03-17T20:00:56.406Z,101937.53
2023-03-17T20:03:26.087Z,101931.09
2023-03-17T20:05:53.712Z,101930.94
2023-03-17T20:08:22.547Z,101929.09
2023-03-17T20:10:52.134Z,101939.00
2023-03-17T20:13:20.698Z,101939.84
2023-03-17T20:15:49.004Z,101933.44
2023-03-17T20:18:17.185Z,101933.09
2023-03-17T20:20:49.548Z,101938.13
2023-03-17T20:23:17.625Z,101927.94
2023-03-17T20:25:44.878Z,101931.59
2023-03-17T20:28:12.771Z,101927.88
2023-03-17T20:30:40.523Z,101918.69
2023-03-17T20:33:09.897Z,101916.69
2023-03-17T20:35:38.143Z,101918.25
2023-03-17T20:38:05.582Z,101911.38
2023-03-17T20:40:33.048Z,101902.16
2023-03-17T20:43:00.443Z,101914.69
2023-03-17T20:45:28.217Z,101912.09
2023-03-17T20:47:56.113Z,101910.66
2023-03-17T20:50:23.605Z,101913.97
2023-03-17T20:52:51.101Z,101908.72
2023-03-17T20:55:19.757Z,101908.06
2023-03-17T20:57:47.600Z,101913.66
2023-03-17T21:00:17.953Z,101915.63
2023-03-17T21:02:46.332Z,101900.22
2023-03-17T21:05:14.629Z,101901.75
2023-03-17T21:07:42.110Z,101907.16
2023-03-17T21:10:09.720Z,101902.59
2023-03-17T21:12:37.032Z,101913.38
2023-03-17T21:15:04.630Z,101912.16
2023-03-17T21:17:32.697Z,101906.75
2023-03-17T21:20:00.022Z,101898.09
2023-03-17T21:22:27.373Z,101896.81
2023-03-17T21:24:55.503Z,101897.47
2023-03-17T21:27:25.767Z,101895.72
2023-03-17T21:29:53.167Z,101899.50
2023-03-17T21:32:20.395Z,101890.78
2023-03-17T21:34:48.217Z,101894.03
2023-03-17T21:37:18.605Z,101893.72
2023-03-17T21:39:45.952Z,101892.69
2023-03-17T21:42:13.669Z,101893.75
2023-03-17T21:44:41.047Z,101896.13
2023-03-17T21:47:08.303Z,101893.84
2023-03-17T21:49:35.607Z,101899.16
2023-03-17T21:52:02.976Z,101886.41
2023-03-17T21:54:30.622Z,101894.81
2023-03-17T21:56:58.446Z,101890.88
2023-03-17T21:59:26.166Z,101894.75
2023-03-17T22:01:53.755Z,101890.75
2023-03-17T22:04:20.997Z,101894.00
2023-03-17T22:06:48.262Z,101893.63
2023-03-17T22:09:18.194Z,101885.09
2023-03-17T22:11:46.649Z,101875.59
2023-03-17T22:14:17.419Z,101878.56
2023-03-17T22:16:44.772Z,101881.81
2023-03-17T22:19:12.166Z,101872.75
2023-03-17T22:21:39.531Z,101893.13
2023-03-17T22:24:07.368Z,101891.16
2023-03-17T22:26:34.831Z,101890.47
2023-03-17T22:29:02.623Z,101885.91
2023-03-17T22:31:30.194Z,101887.66
2023-03-17T22:33:58.638Z,101885.75
2023-03-17T22:36:26.686Z,101889.88
2023-03-17T22:38:54.500Z,101881.47
2023-03-17T22:41:23.693Z,101884.31
2023-03-17T22:43:51.082Z,101880.78
2023-03-17T22:46:19.023Z,101883.31
2023-03-17T22:48:46.798Z,101879.56
2023-03-17T22:51:16.499Z,101875.59
2023-03-17T22:53:43.901Z,101878.75
2023-03-17T22:56:12.457Z,101881.06
2023-03-17T22:58:40.640Z,101887.81
2023-03-17T23:01:08.488Z,101872.56
2023-03-17T23:03:36.253Z,101880.97
2023-03-17T23:06:04.183Z,101879.56
2023-03-17T23:08:35.170Z,101878.75
2023-03-17T23:11:07.143Z,101871.19
2023-03-17T23:13:35.354Z,101867.16
2023-03-17T23:16:03.282Z,101871.38
2023-03-17T23:18:31.121Z,101873.25
2023-03-17T23:20:58.903Z,101871.63
2023-03-17T23:23:26.378Z,101874.59
2023-03-17T23:25:53.826Z,101880.47
2023-03-17T23:28:21.244Z,101871.63
2023-03-17T23:30:48.713Z,101864.47
2023-03-17T23:33:17.530Z,101869.16
2023-03-17T23:35:46.191Z,101863.84
2023-03-17T23:38:13.624Z,101863.31
2023-03-17T23:40:41.332Z,101880.63
2023-03-17T23:43:08.540Z,101867.03
2023-03-17T23:45:35.760Z,101875.00
2023-03-17T23:48:03.131Z,101868.13
2023-03-17T23:50:31.994Z,101874.09
2023-03-17T23:52:59.406Z,101865.63
2023-03-17T23:55:26.660Z,101876.13
2023-03-17T23:57:54.037Z,101865.28
